Time;durP1;ratioP1;P1;durP2;ratioP2;P2;SDS_P1;SDS_P2;PMS_P1;PMS_P2;Temp;Humidity;BMP_temperature;BMP_pressure;BME280_temperature;BME280_humidity;BME280_pressure;Samples;Min_cycle;Max_cycle;Signal;HPM_P1;HPM_P2
2023/07/03 00:01:14;;;;;;;1.45;1.02;;;;;;;;;;4965430;28;20039;-84
2023/07/03 00:03:40;;;;;;;2.13;1.40;;;;;;;;;;4961872;28;20079;-84
2023/07/03 00:06:06;;;;;;;1.90;1.20;;;;;;;;;;4964005;28;20061;-83
2023/07/03 00:08:34;;;;;;;2.60;1.88;;;;;;;;;;4964342;28;20744;-83
2023/07/03 00:11:01;;;;;;;3.78;1.65;;;;;;;;;;4965972;28;20098;-83
2023/07/03 00:13:27;;;;;;;1.38;1.15;;;;;;;;;;4960692;28;20023;-83
2023/07/03 00:16:00;;;;;;;1.65;1.25;;;;;;;;;;4968520;28;20394;-83
2023/07/03 00:18:26;;;;;;;2.45;1.23;;;;;;;;;;4963058;28;20035;-83
2023/07/03 00:20:54;;;;;;;1.98;1.45;;;;;;;;;;4970223;28;20023;-84
2023/07/03 00:23:21;;;;;;;2.13;1.42;;;;;;;;;;4964178;28;20045;-83
2023/07/03 00:25:47;;;;;;;3.65;1.65;;;;;;;;;;4966141;28;20031;-84
2023/07/03 00:28:13;;;;;;;2.78;1.27;;;;;;;;;;4972016;28;20430;-83
2023/07/03 00:30:39;;;;;;;1.35;1.20;;;;;;;;;;4969370;28;20026;-83
2023/07/03 00:33:05;;;;;;;1.48;1.17;;;;;;;;;;4969412;28;20553;-84
2023/07/03 00:35:31;;;;;;;1.38;1.23;;;;;;;;;;4971584;28;20027;-84
2023/07/03 00:37:57;;;;;;;3.25;1.67;;;;;;;;;;4970371;28;20039;-83
2023/07/03 00:40:26;;;;;;;1.73;1.27;;;;;;;;;;4968186;28;20035;-83
2023/07/03 00:42:52;;;;;;;3.90;1.33;;;;;;;;;;4967498;28;20086;-83
2023/07/03 00:45:19;;;;;;;2.17;1.52;;;;;;;;;;4965538;28;20035;-84
2023/07/03 00:47:45;;;;;;;1.77;1.10;;;;;;;;;;4979917;28;20085;-84
2023/07/03 00:50:11;;;;;;;1.35;1.13;;;;;;;;;;4965218;28;20133;-83
2023/07/03 00:52:41;;;;;;;1.15;0.95;;;;;;;;;;4967076;28;20553;-83
2023/07/03 00:55:10;;;;;;;2.33;1.30;;;;;;;;;;4968887;28;20445;-83
2023/07/03 00:57:36;;;;;;;1.50;1.00;;;;;;;;;;4969479;28;20023;-83
2023/07/03 01:00:05;;;;;;;2.47;1.23;;;;;;;;;;4971689;28;20019;-83
2023/07/03 01:02:34;;;;;;;1.35;1.10;;;;;;;;;;4967124;28;20031;-83
2023/07/03 01:05:05;;;;;;;2.30;1.40;;;;;;;;;;4969610;28;20034;-83
2023/07/03 01:07:32;;;;;;;1.85;1.10;;;;;;;;;;4965671;28;20051;-83
2023/07/03 01:10:00;;;;;;;1.98;1.25;;;;;;;;;;4970413;28;20046;-84
2023/07/03 01:12:28;;;;;;;1.48;1.05;;;;;;;;;;4969082;28;20058;-83
2023/07/03 01:14:56;;;;;;;2.10;1.17;;;;;;;;;;4969805;28;20041;-83
2023/07/03 01:17:23;;;;;;;2.63;1.30;;;;;;;;;;4973104;28;20027;-83
2023/07/03 01:19:52;;;;;;;2.88;1.20;;;;;;;;;;4969735;28;20515;-83
2023/07/03 01:22:24;;;;;;;2.80;1.20;;;;;;;;;;4979378;28;20035;-83
2023/07/03 01:24:55;;;;;;;1.10;0.93;;;;;;;;;;4969767;28;20037;-83
2023/07/03 01:27:24;;;;;;;2.85;1.42;;;;;;;;;;4969088;28;20041;-83
2023/07/03 01:29:51;;;;;;;1.92;1.27;;;;;;;;;;4967483;28;20117;-82
2023/07/03 01:32:21;;;;;;;1.90;1.50;;;;;;;;;;4968289;28;20497;-83
2023/07/03 01:34:49;;;;;;;2.22;1.30;;;;;;;;;;4968637;28;20466;-84
2023/07/03 01:37:16;;;;;;;1.98;1.23;;;;;;;;;;4970110;28;20070;-83
2023/07/03 01:39:43;;;;;;;2.15;1.23;;;;;;;;;;4968313;28;20034;-82
2023/07/03 01:42:12;;;;;;;2.17;1.45;;;;;;;;;;4964375;28;20039;-82
2023/07/03 01:44:39;;;;;;;3.30;1.10;;;;;;;;;;4969431;28;20038;-83
2023/07/03 01:47:08;;;;;;;1.70;1.15;;;;;;;;;;4969611;28;20166;-83
2023/07/03 01:49:34;;;;;;;2.55;1.20;;;;;;;;;;4965426;28;20057;-83
2023/07/03 01:52:04;;;;;;;3.83;0.98;;;;;;;;;;4970690;28;20038;-83
2023/07/03 01:54:41;;;;;;;3.25;1.15;;;;;;;;;;4963274;28;20031;-83
2023/07/03 01:57:09;;;;;;;2.28;1.20;;;;;;;;;;4964863;28;20027;-83
2023/07/03 01:59:36;;;;;;;2.13;1.48;;;;;;;;;;4967638;28;20113;-84
2023/07/03 02:02:15;;;;;;;1.55;0.93;;;;;;;;;;4967082;28;20450;-84
2023/07/03 02:04:50;;;;;;;1.48;1.13;;;;;;;;;;4968161;28;20031;-83
2023/07/03 02:07:17;;;;;;;1.50;1.40;;;;;;;;;;4966972;28;20046;-83
2023/07/03 02:09:44;;;;;;;1.55;1.38;;;;;;;;;;4967426;28;20018;-83
2023/07/03 02:12:16;;;;;;;3.13;1.10;;;;;;;;;;4963388;28;20047;-85
2023/07/03 02:14:45;;;;;;;2.85;1.42;;;;;;;;;;4967120;28;20644;-83
2023/07/03 02:17:12;;;;;;;2.35;1.25;;;;;;;;;;4962921;28;20054;-83
2023/07/03 02:19:38;;;;;;;2.30;1.30;;;;;;;;;;4965667;28;20169;-83
2023/07/03 02:22:04;;;;;;;1.30;1.20;;;;;;;;;;4963996;28;20058;-83
2023/07/03 02:24:33;;;;;;;2.80;1.13;;;;;;;;;;4965128;28;20031;-83
2023/07/03 02:26:59;;;;;;;1.52;1.10;;;;;;;;;;4966525;28;20081;-83
2023/07/03 02:29:27;;;;;;;1.10;1.00;;;;;;;;;;4967100;28;20178;-85
2023/07/03 02:31:54;;;;;;;2.17;1.35;;;;;;;;;;4968352;28;20026;-83
2023/07/03 02:34:21;;;;;;;2.53;1.70;;;;;;;;;;4964762;28;20105;-84
2023/07/03 02:36:47;;;;;;;2.28;1.40;;;;;;;;;;4968839;28;20047;-83
2023/07/03 02:39:13;;;;;;;4.30;1.90;;;;;;;;;;4968463;28;20125;-83
2023/07/03 02:41:39;;;;;;;3.53;1.20;;;;;;;;;;4958045;28;20043;-84
2023/07/03 02:44:05;;;;;;;3.03;1.58;;;;;;;;;;4966957;28;20019;-83
2023/07/03 02:46:31;;;;;;;2.35;0.93;;;;;;;;;;4967896;28;20081;-83
2023/07/03 02:48:57;;;;;;;1.95;1.35;;;;;;;;;;4969355;28;20078;-84
2023/07/03 02:51:23;;;;;;;1.65;1.10;;;;;;;;;;4967632;28;20426;-83
2023/07/03 02:53:49;;;;;;;1.85;1.08;;;;;;;;;;4967475;28;20023;-83
2023/07/03 02:56:18;;;;;;;1.95;1.30;;;;;;;;;;4966048;28;20030;-82
2023/07/03 02:58:44;;;;;;;3.60;1.63;;;;;;;;;;4968745;28;20034;-82
2023/07/03 03:01:10;;;;;;;3.33;1.25;;;;;;;;;;4966562;28;20122;-82
2023/07/03 03:03:36;;;;;;;2.67;1.40;;;;;;;;;;4962281;28;20038;-78
2023/07/03 03:06:02;;;;;;;3.03;1.50;;;;;;;;;;4966292;28;20453;-79
2023/07/03 03:08:28;;;;;;;4.38;1.30;;;;;;;;;;4965526;28;20061;-79
2023/07/03 03:10:55;;;;;;;0.98;0.98;;;;;;;;;;4966157;28;20023;-79
2023/07/03 03:13:21;;;;;;;1.38;1.10;;;;;;;;;;4967402;28;20027;-77
2023/07/03 03:15:47;;;;;;;2.03;1.55;;;;;;;;;;4962431;28;20046;-77
2023/07/03 03:18:13;;;;;;;1.52;1.17;;;;;;;;;;4965181;28;20030;-81
2023/07/03 03:20:39;;;;;;;1.77;1.00;;;;;;;;;;4963743;28;20489;-78
2023/07/03 03:23:05;;;;;;;2.00;1.15;;;;;;;;;;4963289;28;20047;-79
2023/07/03 03:25:31;;;;;;;1.48;1.25;;;;;;;;;;4962550;28;20568;-79
2023/07/03 03:27:58;;;;;;;3.50;1.75;;;;;;;;;;4962808;28;20529;-79
2023/07/03 03:30:24;;;;;;;1.08;0.90;;;;;;;;;;4963164;28;20131;-79
2023/07/03 03:32:50;;;;;;;1.90;1.40;;;;;;;;;;4964714;28;20015;-79
2023/07/03 03:35:16;;;;;;;3.08;1.63;;;;;;;;;;4965822;28;20320;-78
2023/07/03 03:37:42;;;;;;;2.22;1.42;;;;;;;;;;4964896;28;20478;-79
2023/07/03 03:40:09;;;;;;;1.85;1.10;;;;;;;;;;4965273;28;20065;-79
2023/07/03 03:42:35;;;;;;;1.80;1.15;;;;;;;;;;4967460;28;20042;-79
2023/07/03 03:45:01;;;;;;;1.45;1.17;;;;;;;;;;4966418;28;20478;-79
2023/07/03 03:47:27;;;;;;;1.92;1.50;;;;;;;;;;4965594;28;20018;-79
2023/07/03 03:49:53;;;;;;;2.22;1.50;;;;;;;;;;4966201;28;20709;-79
2023/07/03 03:52:19;;;;;;;4.32;1.42;;;;;;;;;;4967614;28;20446;-78
2023/07/03 03:54:49;;;;;;;7.93;1.67;;;;;;;;;;4967937;28;20042;-78
2023/07/03 03:57:15;;;;;;;2.30;1.70;;;;;;;;;;4968569;28;20041;-78
2023/07/03 03:59:41;;;;;;;2.15;1.60;;;;;;;;;;4969440;28;20474;-78
2023/07/03 04:02:08;;;;;;;2.75;1.23;;;;;;;;;;4968543;28;20031;-78
2023/07/03 04:04:34;;;;;;;2.00;1.35;;;;;;;;;;4969103;28;20030;-79
2023/07/03 04:07:01;;;;;;;2.53;1.30;;;;;;;;;;4970195;28;20046;-79
2023/07/03 04:09:27;;;;;;;2.05;0.93;;;;;;;;;;4969552;28;20023;-78
2023/07/03 04:11:53;;;;;;;1.95;1.05;;;;;;;;;;4970171;28;20041;-78
2023/07/03 04:14:19;;;;;;;5.88;1.50;;;;;;;;;;4970832;28;20486;-78
2023/07/03 04:16:46;;;;;;;2.55;1.10;;;;;;;;;;4979244;28;20439;-79
2023/07/03 04:19:12;;;;;;;2.97;1.55;;;;;;;;;;4974227;28;20446;-79
2023/07/03 04:21:39;;;;;;;1.38;1.27;;;;;;;;;;4968445;28;20058;-79
2023/07/03 04:24:05;;;;;;;2.25;1.17;;;;;;;;;;4969704;28;20473;-79
2023/07/03 04:26:32;;;;;;;2.58;1.10;;;;;;;;;;4970837;28;20054;-79
2023/07/03 04:28:58;;;;;;;3.35;1.33;;;;;;;;;;4972869;28;20026;-79
2023/07/03 04:31:24;;;;;;;2.83;1.60;;;;;;;;;;4965410;28;20039;-80
2023/07/03 04:33:50;;;;;;;2.92;1.40;;;;;;;;;;4969698;28;20078;-79
2023/07/03 04:36:20;;;;;;;1.60;1.20;;;;;;;;;;4970206;28;20780;-78
2023/07/03 04:38:46;;;;;;;1.25;1.15;;;;;;;;;;4970408;28;20030;-79
2023/07/03 04:41:14;;;;;;;2.45;1.45;;;;;;;;;;4969552;28;20031;-79
2023/07/03 04:43:44;;;;;;;2.78;1.65;;;;;;;;;;4967873;28;20061;-79
2023/07/03 04:46:11;;;;;;;2.20;1.52;;;;;;;;;;4965704;28;20741;-79
2023/07/03 04:48:37;;;;;;;2.00;1.10;;;;;;;;;;4970550;28;20121;-79
2023/07/03 04:51:03;;;;;;;2.40;1.50;;;;;;;;;;4970514;28;20125;-79
2023/07/03 04:53:31;;;;;;;1.50;1.13;;;;;;;;;;4965713;28;20027;-79
2023/07/03 04:55:57;;;;;;;2.60;1.20;;;;;;;;;;4964619;28;20030;-79
2023/07/03 04:58:23;;;;;;;1.50;1.05;;;;;;;;;;4969107;28;20023;-78
2023/07/03 05:00:49;;;;;;;3.38;1.67;;;;;;;;;;4967499;28;20094;-78
2023/07/03 05:03:16;;;;;;;2.15;1.17;;;;;;;;;;4968347;28;20054;-78
2023/07/03 05:05:42;;;;;;;2.20;1.30;;;;;;;;;;4968810;28;20026;-78
2023/07/03 05:08:08;;;;;;;2.83;1.25;;;;;;;;;;4967494;28;20053;-80
2023/07/03 05:10:34;;;;;;;1.45;1.08;;;;;;;;;;4967429;28;20046;-80
2023/07/03 05:13:00;;;;;;;1.25;0.98;;;;;;;;;;4966513;28;20027;-80
2023/07/03 05:15:29;;;;;;;5.30;1.25;;;;;;;;;;4970949;28;20429;-80
2023/07/03 05:17:55;;;;;;;3.03;1.58;;;;;;;;;;4972499;28;20029;-80
2023/07/03 05:20:25;;;;;;;1.42;1.02;;;;;;;;;;4968730;28;20019;-80
2023/07/03 05:22:52;;;;;;;2.60;1.17;;;;;;;;;;4967664;28;20061;-80
2023/07/03 05:25:18;;;;;;;2.55;1.42;;;;;;;;;;4969691;28;20034;-80
2023/07/03 05:27:44;;;;;;;2.28;1.25;;;;;;;;;;4969331;28;20014;-80
2023/07/03 05:30:11;;;;;;;1.98;1.30;;;;;;;;;;4965487;28;20031;-81
2023/07/03 05:32:37;;;;;;;3.30;1.65;;;;;;;;;;4968695;28;20038;-82
2023/07/03 05:35:04;;;;;;;5.10;1.65;;;;;;;;;;4967320;28;20085;-77
2023/07/03 05:37:30;;;;;;;4.97;1.20;;;;;;;;;;4967963;28;20031;-79
2023/07/03 05:39:56;;;;;;;3.25;1.48;;;;;;;;;;4966812;28;20037;-79
2023/07/03 05:42:23;;;;;;;5.28;2.55;;;;;;;;;;4968830;28;20027;-79
2023/07/03 05:44:48;;;;;;;2.47;1.80;;;;;;;;;;4967325;28;20398;-82
2023/07/03 05:47:15;;;;;;;2.13;1.23;;;;;;;;;;4965651;28;20026;-81
2023/07/03 05:49:42;;;;;;;2.83;1.67;;;;;;;;;;4967334;28;20030;-82
2023/07/03 05:52:08;;;;;;;1.92;1.38;;;;;;;;;;4968418;28;20027;-84
2023/07/03 05:54:34;;;;;;;1.45;1.10;;;;;;;;;;4967038;28;20031;-81
2023/07/03 05:57:04;;;;;;;4.05;1.80;;;;;;;;;;4960861;28;20037;-83
2023/07/03 05:59:30;;;;;;;3.40;1.60;;;;;;;;;;4965611;28;20069;-85
2023/07/03 06:01:56;;;;;;;4.55;1.60;;;;;;;;;;4967823;28;20030;-78
2023/07/03 06:04:23;;;;;;;3.45;1.50;;;;;;;;;;4966231;28;20107;-76
2023/07/03 06:06:49;;;;;;;1.95;1.55;;;;;;;;;;4967968;28;20057;-77
2023/07/03 06:09:19;;;;;;;2.40;1.50;;;;;;;;;;4963935;28;20037;-78
2023/07/03 06:11:45;;;;;;;3.03;1.90;;;;;;;;;;4964641;28;20035;-77
2023/07/03 06:14:16;;;;;;;3.65;2.05;;;;;;;;;;4966933;28;20590;-77
2023/07/03 06:16:42;;;;;;;1.42;1.23;;;;;;;;;;4969444;28;20413;-79
2023/07/03 06:19:09;;;;;;;1.85;1.63;;;;;;;;;;4967942;28;20482;-77
2023/07/03 06:21:35;;;;;;;4.18;1.90;;;;;;;;;;4968025;28;20023;-79
2023/07/03 06:24:01;;;;;;;3.50;1.60;;;;;;;;;;4966772;28;20137;-79
2023/07/03 06:26:29;;;;;;;6.82;1.58;;;;;;;;;;4966676;28;20441;-78
2023/07/03 06:28:55;;;;;;;2.65;1.40;;;;;;;;;;4967313;28;20033;-77
2023/07/03 06:31:21;;;;;;;4.35;1.65;;;;;;;;;;4967209;28;20018;-77
2023/07/03 06:33:47;;;;;;;2.75;1.52;;;;;;;;;;4967754;28;20485;-77
2023/07/03 06:36:20;;;;;;;1.80;1.30;;;;;;;;;;4969120;28;20019;-77
2023/07/03 06:38:46;;;;;;;4.07;1.95;;;;;;;;;;4966338;28;20089;-78
2023/07/03 06:41:12;;;;;;;6.70;1.67;;;;;;;;;;4969325;28;20018;-78
2023/07/03 06:43:38;;;;;;;3.60;2.38;;;;;;;;;;4969176;28;20105;-77
2023/07/03 06:46:04;;;;;;;3.13;1.67;;;;;;;;;;4969649;28;20019;-75
2023/07/03 06:48:30;;;;;;;2.10;1.60;;;;;;;;;;4967641;28;20558;-76
2023/07/03 06:51:06;;;;;;;3.28;1.95;;;;;;;;;;4968355;28;20026;-77
2023/07/03 06:53:32;;;;;;;3.10;1.77;;;;;;;;;;4969024;28;20037;-76
2023/07/03 06:55:59;;;;;;;4.20;2.00;;;;;;;;;;4969282;28;20101;-77
2023/07/03 06:58:25;;;;;;;4.63;2.08;;;;;;;;;;4968700;28;20272;-77
2023/07/03 07:00:51;;;;;;;6.18;1.90;;;;;;;;;;4969179;28;20022;-77
2023/07/03 07:03:17;;;;;;;2.55;1.52;;;;;;;;;;4967440;28;20041;-76
2023/07/03 07:05:43;;;;;;;6.85;1.75;;;;;;;;;;4969052;28;20130;-76
2023/07/03 07:08:16;;;;;;;5.53;1.40;;;;;;;;;;4968521;28;20038;-76
2023/07/03 07:10:45;;;;;;;2.13;1.63;;;;;;;;;;4968911;28;20015;-77
2023/07/03 07:13:11;;;;;;;3.03;1.65;;;;;;;;;;4967543;28;20125;-77
2023/07/03 07:15:38;;;;;;;3.20;1.77;;;;;;;;;;4969008;28;20106;-76
2023/07/03 07:18:05;;;;;;;4.45;1.65;;;;;;;;;;4980961;28;20118;-77
2023/07/03 07:20:36;;;;;;;1.70;1.10;;;;;;;;;;4968055;28;20070;-76
2023/07/03 07:23:02;;;;;;;3.70;1.70;;;;;;;;;;4969332;28;20051;-77
2023/07/03 07:25:28;;;;;;;2.22;1.35;;;;;;;;;;4971673;28;20034;-78
2023/07/03 07:27:54;;;;;;;3.42;1.55;;;;;;;;;;4972815;28;20030;-77
2023/07/03 07:30:20;;;;;;;2.00;1.50;;;;;;;;;;4969442;28;20457;-77
2023/07/03 07:32:49;;;;;;;2.42;1.58;;;;;;;;;;4972471;28;20509;-77
2023/07/03 07:35:19;;;;;;;2.53;1.50;;;;;;;;;;4972285;28;20023;-77
2023/07/03 07:37:44;;;;;;;2.42;1.40;;;;;;;;;;4972712;28;20556;-77
2023/07/03 07:40:11;;;;;;;1.48;1.38;;;;;;;;;;4970816;28;20129;-76
2023/07/03 07:42:37;;;;;;;2.55;1.60;;;;;;;;;;4972391;28;20201;-76
2023/07/03 07:45:04;;;;;;;3.75;2.00;;;;;;;;;;4972429;28;20114;-76
2023/07/03 07:47:30;;;;;;;2.60;1.67;;;;;;;;;;4971939;28;20033;-77
2023/07/03 07:49:56;;;;;;;5.05;1.88;;;;;;;;;;4971088;28;20050;-76
2023/07/03 07:52:25;;;;;;;3.58;1.83;;;;;;;;;;4972232;28;20026;-76
2023/07/03 07:54:57;;;;;;;2.17;1.40;;;;;;;;;;4971046;28;20027;-77
2023/07/03 07:57:24;;;;;;;3.50;1.88;;;;;;;;;;4972071;28;20022;-77
2023/07/03 07:59:50;;;;;;;1.70;1.40;;;;;;;;;;4971656;28;20034;-77
2023/07/03 08:02:16;;;;;;;3.55;1.58;;;;;;;;;;4971763;28;20058;-77
2023/07/03 08:04:42;;;;;;;2.92;1.70;;;;;;;;;;4970679;28;20556;-77
2023/07/03 08:07:08;;;;;;;2.53;1.55;;;;;;;;;;4971890;28;20171;-77
2023/07/03 08:09:34;;;;;;;3.03;1.83;;;;;;;;;;4968598;28;20094;-78
2023/07/03 08:12:03;;;;;;;1.13;0.98;;;;;;;;;;4962123;28;20679;-77
2023/07/03 08:14:29;;;;;;;2.15;1.40;;;;;;;;;;4970304;28;20030;-77
2023/07/03 08:16:55;;;;;;;3.08;1.40;;;;;;;;;;4979981;28;20101;-77
2023/07/03 08:19:22;;;;;;;4.32;1.85;;;;;;;;;;4974414;28;20051;-77
2023/07/03 08:21:48;;;;;;;3.55;1.65;;;;;;;;;;4968235;28;20030;-77
2023/07/03 08:24:14;;;;;;;2.80;1.30;;;;;;;;;;4985995;28;20041;-78
2023/07/03 08:26:41;;;;;;;3.10;1.73;;;;;;;;;;4971338;28;20030;-79
2023/07/03 08:29:10;;;;;;;2.33;1.17;;;;;;;;;;4971582;28;20110;-77
2023/07/03 08:31:36;;;;;;;3.75;1.63;;;;;;;;;;4970418;28;20059;-78
2023/07/03 08:34:02;;;;;;;4.60;2.80;;;;;;;;;;4970144;28;20505;-78
2023/07/03 08:36:28;;;;;;;5.25;1.40;;;;;;;;;;4970552;28;20025;-77
2023/07/03 08:38:55;;;;;;;2.50;1.20;;;;;;;;;;4971260;28;20026;-77
2023/07/03 08:41:24;;;;;;;3.58;1.50;;;;;;;;;;4971434;28;20164;-77
2023/07/03 08:43:54;;;;;;;4.68;1.90;;;;;;;;;;4970012;28;20498;-77
2023/07/03 08:46:21;;;;;;;4.80;1.58;;;;;;;;;;4971088;28;20034;-75
2023/07/03 08:48:49;;;;;;;3.45;1.30;;;;;;;;;;4971026;28;20062;-77
2023/07/03 08:51:18;;;;;;;3.85;1.40;;;;;;;;;;4971318;28;20034;-77
2023/07/03 08:53:45;;;;;;;3.50;1.50;;;;;;;;;;4969226;28;20389;-77
2023/07/03 08:56:11;;;;;;;2.03;1.42;;;;;;;;;;4970935;28;20466;-77
2023/07/03 08:58:37;;;;;;;2.78;1.35;;;;;;;;;;4971314;28;20089;-78
2023/07/03 09:01:10;;;;;;;2.60;1.52;;;;;;;;;;4971112;28;20038;-77
2023/07/03 09:03:41;;;;;;;2.47;1.40;;;;;;;;;;4969594;28;20162;-76
2023/07/03 09:06:34;;;;;;;4.05;1.50;;;;;;;;;;4970545;28;20438;-77
2023/07/03 09:09:11;;;;;;;2.75;1.67;;;;;;;;;;4968857;28;20510;-77
2023/07/03 09:11:40;;;;;;;2.35;1.55;;;;;;;;;;4957862;28;20046;-78
2023/07/03 09:14:07;;;;;;;2.97;1.50;;;;;;;;;;4969422;28;20031;-76
2023/07/03 09:16:33;;;;;;;3.33;1.45;;;;;;;;;;4975930;28;20571;-76
2023/07/03 09:19:17;;;;;;;2.67;1.70;;;;;;;;;;4976245;28;20676;-77
2023/07/03 09:21:44;;;;;;;3.47;1.30;;;;;;;;;;4970745;28;20026;-77
2023/07/03 09:24:22;;;;;;;2.58;1.92;;;;;;;;;;4969936;28;20031;-76
2023/07/03 09:26:57;;;;;;;3.72;1.88;;;;;;;;;;4965349;28;20033;-77
2023/07/03 09:29:25;;;;;;;2.03;1.45;;;;;;;;;;4965977;28;20231;-76
2023/07/03 09:31:52;;;;;;;3.88;1.65;;;;;;;;;;4968196;28;20027;-76
2023/07/03 09:34:19;;;;;;;3.75;1.30;;;;;;;;;;4970037;28;20512;-77
2023/07/03 09:36:58;;;;;;;1.55;1.17;;;;;;;;;;4969379;28;20035;-78
2023/07/03 09:39:24;;;;;;;1.55;1.13;;;;;;;;;;4968906;28;20030;-76
2023/07/03 09:41:50;;;;;;;4.65;1.67;;;;;;;;;;4969729;28;20027;-76
2023/07/03 09:44:17;;;;;;;4.03;1.52;;;;;;;;;;4969902;28;20114;-77
2023/07/03 09:46:43;;;;;;;4.10;1.58;;;;;;;;;;4969510;28;20033;-77
2023/07/03 09:49:24;;;;;;;2.83;1.83;;;;;;;;;;4967410;28;20416;-76
2023/07/03 09:51:51;;;;;;;1.38;1.05;;;;;;;;;;4970211;28;20030;-76
2023/07/03 09:54:18;;;;;;;5.18;1.95;;;;;;;;;;4970070;28;20023;-77
2023/07/03 09:56:44;;;;;;;2.40;1.42;;;;;;;;;;4969409;28;20019;-76
2023/07/03 09:59:14;;;;;;;1.98;1.23;;;;;;;;;;4965274;28;20019;-76
2023/07/03 10:01:40;;;;;;;2.70;1.63;;;;;;;;;;4965426;28;20405;-76
2023/07/03 10:04:08;;;;;;;2.30;1.20;;;;;;;;;;4969855;28;20018;-77
2023/07/03 10:06:34;;;;;;;4.18;1.30;;;;;;;;;;4969372;28;20050;-78
2023/07/03 10:09:02;;;;;;;2.05;1.10;;;;;;;;;;4969766;28;20031;-78
2023/07/03 10:11:32;;;;;;;2.47;1.33;;;;;;;;;;4967935;28;20019;-78
2023/07/03 10:13:58;;;;;;;3.83;1.55;;;;;;;;;;4968913;28;20469;-76
2023/07/03 10:16:27;;;;;;;3.40;1.70;;;;;;;;;;4973645;28;20022;-78
2023/07/03 10:18:58;;;;;;;3.20;1.35;;;;;;;;;;4975757;28;20378;-79
2023/07/03 10:21:24;;;;;;;2.90;1.15;;;;;;;;;;4969256;28;20675;-76
2023/07/03 10:23:50;;;;;;;4.40;1.85;;;;;;;;;;4966874;28;20446;-76
2023/07/03 10:26:20;;;;;;;1.73;1.63;;;;;;;;;;4967936;28;20117;-76
2023/07/03 10:28:49;;;;;;;1.77;1.27;;;;;;;;;;4968816;28;20027;-76
2023/07/03 10:31:27;;;;;;;2.22;1.30;;;;;;;;;;4969459;28;20023;-76
2023/07/03 10:33:55;;;;;;;2.38;1.05;;;;;;;;;;4968960;28;20689;-76
2023/07/03 10:36:25;;;;;;;1.50;1.23;;;;;;;;;;4967008;28;20501;-76
2023/07/03 10:38:55;;;;;;;1.40;1.20;;;;;;;;;;4966823;28;20062;-76
2023/07/03 10:41:30;;;;;;;4.72;1.50;;;;;;;;;;4969013;28;20146;-76
2023/07/03 10:43:57;;;;;;;2.60;1.33;;;;;;;;;;4969026;28;20054;-76
2023/07/03 10:46:47;;;;;;;1.83;1.00;;;;;;;;;;4968958;28;20026;-76
2023/07/03 10:49:17;;;;;;;2.65;1.20;;;;;;;;;;4968080;28;20077;-76
2023/07/03 10:51:43;;;;;;;3.35;1.30;;;;;;;;;;4968538;28;20034;-77
2023/07/03 10:54:13;;;;;;;3.58;1.48;;;;;;;;;;4969010;28;20274;-77
2023/07/03 10:56:44;;;;;;;1.77;1.10;;;;;;;;;;4968343;28;20027;-76
2023/07/03 10:59:26;;;;;;;1.10;1.00;;;;;;;;;;4967049;28;20031;-77
2023/07/03 11:02:12;;;;;;;1.23;1.08;;;;;;;;;;4964708;28;20089;-77
2023/07/03 11:04:44;;;;;;;2.47;1.30;;;;;;;;;;4967272;28;20035;-76
2023/07/03 11:07:27;;;;;;;4.30;1.60;;;;;;;;;;4968736;28;20054;-77
2023/07/03 11:10:01;;;;;;;3.72;1.13;;;;;;;;;;4968649;28;20190;-77
2023/07/03 11:12:31;;;;;;;2.88;1.40;;;;;;;;;;4968576;28;20117;-78
2023/07/03 11:15:11;;;;;;;2.58;1.05;;;;;;;;;;4961792;28;20557;-77
2023/07/03 11:17:46;;;;;;;2.90;1.17;;;;;;;;;;4976520;28;20127;-77
2023/07/03 11:20:12;;;;;;;2.45;1.05;;;;;;;;;;4968811;28;20022;-77
2023/07/03 11:22:55;;;;;;;2.17;1.20;;;;;;;;;;4968340;28;20073;-76
2023/07/03 11:25:23;;;;;;;1.33;1.05;;;;;;;;;;4964861;28;20462;-77
2023/07/03 11:27:54;;;;;;;1.25;1.00;;;;;;;;;;4969045;28;20114;-78
2023/07/03 11:30:20;;;;;;;5.20;2.22;;;;;;;;;;4967526;28;20054;-77
2023/07/03 11:32:47;;;;;;;1.13;1.02;;;;;;;;;;4967308;28;20031;-78
2023/07/03 11:35:13;;;;;;;3.47;1.02;;;;;;;;;;4968337;28;20070;-78
2023/07/03 11:37:40;;;;;;;2.28;1.63;;;;;;;;;;4968662;28;20034;-79
2023/07/03 11:40:25;;;;;;;1.83;1.50;;;;;;;;;;4968043;28;20062;-78
2023/07/03 11:43:14;;;;;;;1.73;1.40;;;;;;;;;;4965330;28;20031;-77
2023/07/03 11:45:40;;;;;;;4.05;0.98;;;;;;;;;;4950705;28;20078;-77
2023/07/03 11:48:26;;;;;;;2.35;1.00;;;;;;;;;;4967615;28;20130;-77
2023/07/03 11:50:58;;;;;;;2.40;1.13;;;;;;;;;;4962493;28;20204;-78
2023/07/03 11:53:29;;;;;;;0.80;0.80;;;;;;;;;;4962060;28;20105;-78
2023/07/03 11:55:55;;;;;;;4.53;1.67;;;;;;;;;;4966483;28;20398;-79
2023/07/03 11:58:25;;;;;;;1.75;1.08;;;;;;;;;;4965241;28;20058;-78
2023/07/03 12:01:10;;;;;;;2.87;1.20;;;;;;;;;;4968449;28;20038;-79
2023/07/03 12:04:09;;;;;;;4.22;1.05;;;;;;;;;;4964414;28;20027;-78
2023/07/03 12:06:41;;;;;;;1.75;0.90;;;;;;;;;;4943347;28;20121;-78
2023/07/03 12:09:19;;;;;;;2.03;1.52;;;;;;;;;;4966627;28;20042;-78
2023/07/03 12:12:00;;;;;;;2.67;1.30;;;;;;;;;;4968062;28;20035;-78
2023/07/03 12:14:26;;;;;;;;;;;;;;;;;;4971639;28;20072;-78
2023/07/03 12:16:52;;;;;;;6.45;1.35;;;;;;;;;;4971554;28;19949;-78
2023/07/03 12:19:19;;;;;;;3.22;1.60;;;;;;;;;;4969778;28;20039;-76
2023/07/03 12:21:47;;;;;;;4.95;1.40;;;;;;;;;;4970831;28;20121;-78
2023/07/03 12:24:21;;;;;;;2.75;1.33;;;;;;;;;;4971262;28;20026;-77
2023/07/03 12:27:00;;;;;;;4.93;1.40;;;;;;;;;;4970296;28;20026;-78
2023/07/03 12:29:26;;;;;;;2.60;1.15;;;;;;;;;;4967553;28;20069;-78
2023/07/03 12:31:56;;;;;;;2.20;1.40;;;;;;;;;;4969345;28;20078;-78
2023/07/03 12:34:26;;;;;;;2.10;1.27;;;;;;;;;;4971006;28;20027;-78
2023/07/03 12:36:52;;;;;;;5.10;0.97;;;;;;;;;;4970899;28;20034;-77
2023/07/03 12:39:18;;;;;;;4.13;1.20;;;;;;;;;;4968462;28;21410;-77
2023/07/03 12:41:44;;;;;;;1.38;1.02;;;;;;;;;;4964011;28;20053;-78
2023/07/03 12:44:11;;;;;;;2.22;0.80;;;;;;;;;;4968038;28;20014;-77
2023/07/03 12:46:40;;;;;;;4.47;1.25;;;;;;;;;;4970943;28;20038;-78
2023/07/03 12:49:06;;;;;;;1.63;1.40;;;;;;;;;;4964721;28;20247;-78
2023/07/03 12:51:38;;;;;;;2.00;1.30;;;;;;;;;;4967829;28;20433;-77
2023/07/03 12:54:04;;;;;;;3.28;1.38;;;;;;;;;;4967365;28;20023;-78
2023/07/03 12:56:30;;;;;;;2.95;1.23;;;;;;;;;;4963470;28;20019;-77
2023/07/03 12:58:57;;;;;;;1.55;1.23;;;;;;;;;;4967976;28;20066;-78
2023/07/03 13:01:24;;;;;;;4.40;1.10;;;;;;;;;;4968432;28;20051;-77
2023/07/03 13:03:51;;;;;;;1.58;1.17;;;;;;;;;;4969848;28;20049;-77
2023/07/03 13:06:22;;;;;;;4.05;0.98;;;;;;;;;;4963301;28;20434;-77
2023/07/03 13:08:48;;;;;;;;;;;;;;;;;;4961854;28;20038;-78
2023/07/03 13:11:14;;;;;;;3.47;1.23;;;;;;;;;;4968779;28;19997;-77
2023/07/03 13:13:40;;;;;;;4.18;1.45;;;;;;;;;;4969408;28;20097;-78
2023/07/03 13:16:16;;;;;;;2.55;1.92;;;;;;;;;;4971206;28;20078;-78
2023/07/03 13:18:57;;;;;;;1.85;1.20;;;;;;;;;;4968528;28;20027;-78
2023/07/03 13:21:24;;;;;;;1.77;1.35;;;;;;;;;;4964092;28;20026;-78
2023/07/03 13:23:50;;;;;;;3.72;1.45;;;;;;;;;;4966348;28;20026;-77
2023/07/03 13:26:21;;;;;;;1.90;1.23;;;;;;;;;;4965336;28;20062;-78
2023/07/03 13:28:52;;;;;;;2.65;1.70;;;;;;;;;;4968812;28;20129;-78
2023/07/03 13:31:22;;;;;;;2.08;1.30;;;;;;;;;;4969869;28;20398;-77
2023/07/03 13:34:06;;;;;;;1.65;1.45;;;;;;;;;;4968560;28;20077;-78
2023/07/03 13:36:43;;;;;;;5.68;1.35;;;;;;;;;;4967282;28;20047;-77
2023/07/03 13:39:14;;;;;;;1.92;1.17;;;;;;;;;;4968303;28;20081;-78
2023/07/03 13:41:41;;;;;;;3.05;1.13;;;;;;;;;;4968535;28;20022;-77
2023/07/03 13:44:09;;;;;;;3.15;1.35;;;;;;;;;;4970752;28;20042;-77
2023/07/03 13:46:35;;;;;;;6.07;1.13;;;;;;;;;;4967882;28;20552;-75
2023/07/03 13:49:01;;;;;;;4.10;1.95;;;;;;;;;;4968686;28;20078;-77
2023/07/03 13:51:28;;;;;;;3.17;1.10;;;;;;;;;;4968751;28;20031;-77
2023/07/03 13:53:54;;;;;;;7.22;1.35;;;;;;;;;;4963175;28;20030;-76
2023/07/03 13:56:20;;;;;;;2.83;1.13;;;;;;;;;;4965878;28;20078;-76
2023/07/03 13:58:46;;;;;;;2.22;1.52;;;;;;;;;;4966921;28;20034;-76
2023/07/03 14:01:12;;;;;;;3.15;1.45;;;;;;;;;;4969638;28;20437;-77
2023/07/03 14:03:39;;;;;;;2.67;1.35;;;;;;;;;;4969152;28;20019;-76
2023/07/03 14:06:06;;;;;;;4.10;1.58;;;;;;;;;;4967724;28;20090;-76
2023/07/03 14:08:32;;;;;;;4.80;1.30;;;;;;;;;;4965370;28;20058;-77
2023/07/03 14:10:58;;;;;;;2.95;1.38;;;;;;;;;;4968361;28;20065;-77
2023/07/03 14:13:24;;;;;;;3.17;1.38;;;;;;;;;;4967162;28;20390;-77
2023/07/03 14:15:50;;;;;;;1.35;1.02;;;;;;;;;;4969178;28;20022;-77
2023/07/03 14:18:17;;;;;;;2.90;1.58;;;;;;;;;;4977239;28;20106;-77
2023/07/03 14:20:43;;;;;;;6.35;1.50;;;;;;;;;;4966705;28;20081;-77
2023/07/03 14:23:09;;;;;;;2.13;1.15;;;;;;;;;;4968826;28;20025;-78
2023/07/03 14:25:37;;;;;;;3.25;0.90;;;;;;;;;;4967372;28;20019;-78
2023/07/03 14:28:04;;;;;;;1.77;1.10;;;;;;;;;;4960791;28;20019;-78
2023/07/03 14:30:30;;;;;;;1.13;1.02;;;;;;;;;;4964918;28;20029;-78
2023/07/03 14:32:56;;;;;;;1.50;1.30;;;;;;;;;;4968411;28;20439;-76
2023/07/03 14:35:22;;;;;;;4.30;1.33;;;;;;;;;;4966677;28;20203;-78
2023/07/03 14:37:48;;;;;;;3.55;0.90;;;;;;;;;;4964074;28;20031;-77
2023/07/03 14:40:14;;;;;;;1.80;1.20;;;;;;;;;;4966231;28;20119;-77
2023/07/03 14:42:40;;;;;;;1.70;1.05;;;;;;;;;;4967421;28;20119;-77
2023/07/03 14:45:07;;;;;;;2.05;1.25;;;;;;;;;;4968168;28;20023;-77
2023/07/03 14:47:33;;;;;;;3.33;1.13;;;;;;;;;;4967881;28;20493;-77
2023/07/03 14:49:59;;;;;;;2.38;1.73;;;;;;;;;;4967493;28;20022;-77